sensor_id;sensor_type;location;lat;lon;timestamp;temperature;humidity
30336;DHT22;17142;47.990;7.846;2022-11-20T00:01:22;5.90;99.90
30336;DHT22;17142;47.990;7.846;2022-11-20T00:03:53;5.90;99.90
30336;DHT22;17142;47.990;7.846;2022-11-20T00:06:22;5.90;99.90
30336;DHT22;17142;47.990;7.846;2022-11-20T00:08:48;5.90;99.90
30336;DHT22;17142;47.990;7.846;2022-11-20T00:11:20;5.90;99.90
30336;DHT22;17142;47.990;7.846;2022-11-20T00:13:48;5.90;99.90
30336;DHT22;17142;47.990;7.846;2022-11-20T00:16:17;5.90;99.90
30336;DHT22;17142;47.990;7.846;2022-11-20T00:18:43;5.80;99.90
30336;DHT22;17142;47.990;7.846;2022-11-20T00:21:14;5.80;99.90
30336;DHT22;17142;47.990;7.846;2022-11-20T00:23:40;5.80;99.90
30336;DHT22;17142;47.990;7.846;2022-11-20T00:26:12;5.80;99.90
30336;DHT22;17142;47.990;7.846;2022-11-20T00:28:38;5.80;99.90
30336;DHT22;17142;47.990;7.846;2022-11-20T00:31:13;5.80;99.90
30336;DHT22;17142;47.990;7.846;2022-11-20T00:33:39;5.80;99.90
30336;DHT22;17142;47.990;7.846;2022-11-20T00:36:10;5.90;99.90
30336;DHT22;17142;47.990;7.846;2022-11-20T00:38:36;5.90;99.90
30336;DHT22;17142;47.990;7.846;2022-11-20T00:41:04;5.90;99.90
30336;DHT22;17142;47.990;7.846;2022-11-20T00:43:31;5.90;99.90
30336;DHT22;17142;47.990;7.846;2022-11-20T00:46:12;5.90;99.90
30336;DHT22;17142;47.990;7.846;2022-11-20T00:48:38;5.90;99.90
30336;DHT22;17142;47.990;7.846;2022-11-20T00:51:09;5.90;99.90
30336;DHT22;17142;47.990;7.846;2022-11-20T00:53:36;5.80;99.90
30336;DHT22;17142;47.990;7.846;2022-11-20T00:56:14;5.90;99.90
30336;DHT22;17142;47.990;7.846;2022-11-20T00:58:42;5.80;99.90
30336;DHT22;17142;47.990;7.846;2022-11-20T01:01:11;5.80;99.90
30336;DHT22;17142;47.990;7.846;2022-11-20T01:03:42;5.80;99.90
30336;DHT22;17142;47.990;7.846;2022-11-20T01:06:32;5.80;99.90
30336;DHT22;17142;47.990;7.846;2022-11-20T01:09:06;5.80;99.90
30336;DHT22;17142;47.990;7.846;2022-11-20T01:11:35;5.80;99.90
30336;DHT22;17142;47.990;7.846;2022-11-20T01:14:03;5.90;99.90
30336;DHT22;17142;47.990;7.846;2022-11-20T01:19:03;5.80;99.90
30336;DHT22;17142;47.990;7.846;2022-11-20T01:21:31;5.80;99.90
30336;DHT22;17142;47.990;7.846;2022-11-20T01:24:00;5.80;99.90
30336;DHT22;17142;47.990;7.846;2022-11-20T01:26:28;5.90;99.90
30336;DHT22;17142;47.990;7.846;2022-11-20T01:28:57;5.80;99.90
30336;DHT22;17142;47.990;7.846;2022-11-20T01:31:25;5.90;99.90
30336;DHT22;17142;47.990;7.846;2022-11-20T01:33:53;5.90;99.90
30336;DHT22;17142;47.990;7.846;2022-11-20T01:36:22;5.90;99.90
30336;DHT22;17142;47.990;7.846;2022-11-20T01:38:52;5.80;99.90
30336;DHT22;17142;47.990;7.846;2022-11-20T01:41:18;5.80;99.90
30336;DHT22;17142;47.990;7.846;2022-11-20T01:44:03;5.90;99.90
30336;DHT22;17142;47.990;7.846;2022-11-20T01:46:33;5.80;99.90
30336;DHT22;17142;47.990;7.846;2022-11-20T01:49:14;5.80;99.90
30336;DHT22;17142;47.990;7.846;2022-11-20T01:51:45;5.80;99.90
30336;DHT22;17142;47.990;7.846;2022-11-20T01:54:19;5.80;99.90
30336;DHT22;17142;47.990;7.846;2022-11-20T01:56:47;5.80;99.90
30336;DHT22;17142;47.990;7.846;2022-11-20T01:59:15;5.80;99.90
30336;DHT22;17142;47.990;7.846;2022-11-20T02:01:43;5.80;99.90
30336;DHT22;17142;47.990;7.846;2022-11-20T02:04:09;5.80;99.90
30336;DHT22;17142;47.990;7.846;2022-11-20T02:06:42;5.80;99.90
30336;DHT22;17142;47.990;7.846;2022-11-20T02:09:08;5.80;99.90
30336;DHT22;17142;47.990;7.846;2022-11-20T02:11:37;5.80;99.90
30336;DHT22;17142;47.990;7.846;2022-11-20T02:14:02;5.80;99.90
30336;DHT22;17142;47.990;7.846;2022-11-20T02:16:40;5.90;99.90
30336;DHT22;17142;47.990;7.846;2022-11-20T02:19:22;5.90;99.90
30336;DHT22;17142;47.990;7.846;2022-11-20T02:24:39;5.90;99.90
30336;DHT22;17142;47.990;7.846;2022-11-20T02:27:09;5.90;99.90
30336;DHT22;17142;47.990;7.846;2022-11-20T02:32:26;5.90;99.90
30336;DHT22;17142;47.990;7.846;2022-11-20T02:34:54;5.90;99.90
30336;DHT22;17142;47.990;7.846;2022-11-20T02:37:26;5.90;99.90
30336;DHT22;17142;47.990;7.846;2022-11-20T02:39:54;5.90;99.90
30336;DHT22;17142;47.990;7.846;2022-11-20T02:42:20;5.90;99.90
30336;DHT22;17142;47.990;7.846;2022-11-20T02:44:45;5.90;99.90
30336;DHT22;17142;47.990;7.846;2022-11-20T02:47:11;5.90;99.90
30336;DHT22;17142;47.990;7.846;2022-11-20T02:49:36;5.90;99.90
30336;DHT22;17142;47.990;7.846;2022-11-20T02:52:02;5.90;99.90
30336;DHT22;17142;47.990;7.846;2022-11-20T02:54:28;5.90;99.90
30336;DHT22;17142;47.990;7.846;2022-11-20T02:56:53;6.00;99.90
30336;DHT22;17142;47.990;7.846;2022-11-20T02:59:19;6.00;99.90
30336;DHT22;17142;47.990;7.846;2022-11-20T03:01:45;6.00;99.90
30336;DHT22;17142;47.990;7.846;2022-11-20T03:04:10;6.00;99.90
30336;DHT22;17142;47.990;7.846;2022-11-20T03:06:36;5.90;99.90
30336;DHT22;17142;47.990;7.846;2022-11-20T03:09:04;5.90;99.90
30336;DHT22;17142;47.990;7.846;2022-11-20T03:11:30;5.80;99.90
30336;DHT22;17142;47.990;7.846;2022-11-20T03:14:02;5.80;99.90
30336;DHT22;17142;47.990;7.846;2022-11-20T03:16:30;5.70;99.90
30336;DHT22;17142;47.990;7.846;2022-11-20T03:19:01;5.70;99.90
30336;DHT22;17142;47.990;7.846;2022-11-20T03:21:27;5.70;99.90
30336;DHT22;17142;47.990;7.846;2022-11-20T03:23:55;5.80;99.90
30336;DHT22;17142;47.990;7.846;2022-11-20T03:26:23;5.80;99.90
30336;DHT22;17142;47.990;7.846;2022-11-20T03:31:20;5.90;99.90
30336;DHT22;17142;47.990;7.846;2022-11-20T03:33:46;5.90;99.90
30336;DHT22;17142;47.990;7.846;2022-11-20T03:36:16;5.90;99.90
30336;DHT22;17142;47.990;7.846;2022-11-20T03:38:45;5.90;99.90
30336;DHT22;17142;47.990;7.846;2022-11-20T03:41:18;6.00;99.90
30336;DHT22;17142;47.990;7.846;2022-11-20T03:44:00;6.00;99.90
30336;DHT22;17142;47.990;7.846;2022-11-20T03:46:27;6.00;99.90
30336;DHT22;17142;47.990;7.846;2022-11-20T03:48:53;6.00;99.90
30336;DHT22;17142;47.990;7.846;2022-11-20T03:51:29;6.00;99.90
30336;DHT22;17142;47.990;7.846;2022-11-20T03:53:58;6.00;99.90
30336;DHT22;17142;47.990;7.846;2022-11-20T03:56:26;6.00;99.90
30336;DHT22;17142;47.990;7.846;2022-11-20T03:58:52;6.10;99.90
30336;DHT22;17142;47.990;7.846;2022-11-20T04:01:32;6.10;99.90
30336;DHT22;17142;47.990;7.846;2022-11-20T04:03:58;6.10;99.90
30336;DHT22;17142;47.990;7.846;2022-11-20T04:06:34;6.20;99.90
30336;DHT22;17142;47.990;7.846;2022-11-20T04:09:03;6.20;99.90
30336;DHT22;17142;47.990;7.846;2022-11-20T04:11:30;6.20;99.90
30336;DHT22;17142;47.990;7.846;2022-11-20T04:14:04;6.20;99.90
30336;DHT22;17142;47.990;7.846;2022-11-20T04:16:33;6.10;99.90
30336;DHT22;17142;47.990;7.846;2022-11-20T04:19:08;6.10;99.90
30336;DHT22;17142;47.990;7.846;2022-11-20T04:21:35;6.10;99.90
30336;DHT22;17142;47.990;7.846;2022-11-20T04:24:01;6.10;99.90
30336;DHT22;17142;47.990;7.846;2022-11-20T04:26:28;6.10;99.90
30336;DHT22;17142;47.990;7.846;2022-11-20T04:28:57;6.20;99.90
30336;DHT22;17142;47.990;7.846;2022-11-20T04:31:28;6.20;99.90
30336;DHT22;17142;47.990;7.846;2022-11-20T04:33:58;6.20;99.90
30336;DHT22;17142;47.990;7.846;2022-11-20T04:36:26;6.20;99.90
30336;DHT22;17142;47.990;7.846;2022-11-20T04:39:03;6.20;99.90
30336;DHT22;17142;47.990;7.846;2022-11-20T04:41:31;6.20;99.90
30336;DHT22;17142;47.990;7.846;2022-11-20T04:44:04;6.10;99.90
30336;DHT22;17142;47.990;7.846;2022-11-20T04:46:50;6.10;99.90
30336;DHT22;17142;47.990;7.846;2022-11-20T04:49:18;6.10;99.90
30336;DHT22;17142;47.990;7.846;2022-11-20T04:51:46;6.00;99.90
30336;DHT22;17142;47.990;7.846;2022-11-20T04:54:12;6.00;99.90
30336;DHT22;17142;47.990;7.846;2022-11-20T04:56:40;6.00;99.90
30336;DHT22;17142;47.990;7.846;2022-11-20T04:59:07;6.00;99.90
30336;DHT22;17142;47.990;7.846;2022-11-20T05:01:35;5.90;99.90
30336;DHT22;17142;47.990;7.846;2022-11-20T05:04:01;5.90;99.90
30336;DHT22;17142;47.990;7.846;2022-11-20T05:06:31;5.90;99.90
30336;DHT22;17142;47.990;7.846;2022-11-20T05:09:00;5.90;99.90
30336;DHT22;17142;47.990;7.846;2022-11-20T05:11:26;5.90;99.90
30336;DHT22;17142;47.990;7.846;2022-11-20T05:14:01;5.90;99.90
30336;DHT22;17142;47.990;7.846;2022-11-20T05:16:29;6.00;99.90
30336;DHT22;17142;47.990;7.846;2022-11-20T05:18:55;5.90;99.90
30336;DHT22;17142;47.990;7.846;2022-11-20T05:21:20;5.90;99.90
30336;DHT22;17142;47.990;7.846;2022-11-20T05:23:48;5.90;99.90
30336;DHT22;17142;47.990;7.846;2022-11-20T05:26:19;5.90;99.90
30336;DHT22;17142;47.990;7.846;2022-11-20T05:28:47;5.90;99.90
30336;DHT22;17142;47.990;7.846;2022-11-20T05:31:19;6.00;99.90
30336;DHT22;17142;47.990;7.846;2022-11-20T05:33:45;6.00;99.90
30336;DHT22;17142;47.990;7.846;2022-11-20T05:36:14;6.00;99.90
30336;DHT22;17142;47.990;7.846;2022-11-20T05:38:43;6.00;99.90
30336;DHT22;17142;47.990;7.846;2022-11-20T05:41:14;6.00;99.90
30336;DHT22;17142;47.990;7.846;2022-11-20T05:43:41;6.10;99.90
30336;DHT22;17142;47.990;7.846;2022-11-20T05:46:08;6.10;99.90
30336;DHT22;17142;47.990;7.846;2022-11-20T05:48:35;6.10;99.90
30336;DHT22;17142;47.990;7.846;2022-11-20T05:51:03;6.20;99.90
30336;DHT22;17142;47.990;7.846;2022-11-20T05:53:29;6.20;99.90
30336;DHT22;17142;47.990;7.846;2022-11-20T05:56:08;6.20;99.90
30336;DHT22;17142;47.990;7.846;2022-11-20T05:58:37;6.20;99.90
30336;DHT22;17142;47.990;7.846;2022-11-20T06:03:36;6.20;99.90
30336;DHT22;17142;47.990;7.846;2022-11-20T06:06:04;6.20;99.90
30336;DHT22;17142;47.990;7.846;2022-11-20T06:08:32;6.10;99.90
30336;DHT22;17142;47.990;7.846;2022-11-20T06:11:09;6.10;99.90
30336;DHT22;17142;47.990;7.846;2022-11-20T06:13:36;6.10;99.90
30336;DHT22;17142;47.990;7.846;2022-11-20T06:16:02;6.10;99.90
30336;DHT22;17142;47.990;7.846;2022-11-20T06:18:33;6.10;99.90
30336;DHT22;17142;47.990;7.846;2022-11-20T06:21:03;6.20;99.90
30336;DHT22;17142;47.990;7.846;2022-11-20T06:23:31;6.20;99.90
30336;DHT22;17142;47.990;7.846;2022-11-20T06:25:57;6.20;99.90
30336;DHT22;17142;47.990;7.846;2022-11-20T06:28:25;6.20;99.90
30336;DHT22;17142;47.990;7.846;2022-11-20T06:30:50;6.20;99.90
30336;DHT22;17142;47.990;7.846;2022-11-20T06:33:16;6.20;99.90
30336;DHT22;17142;47.990;7.846;2022-11-20T06:35:41;6.30;99.90
30336;DHT22;17142;47.990;7.846;2022-11-20T06:38:09;6.30;99.90
30336;DHT22;17142;47.990;7.846;2022-11-20T06:40:35;6.20;99.90
30336;DHT22;17142;47.990;7.846;2022-11-20T06:43:01;6.20;99.90
30336;DHT22;17142;47.990;7.846;2022-11-20T06:45:26;6.10;99.90
30336;DHT22;17142;47.990;7.846;2022-11-20T06:47:52;6.20;99.90
30336;DHT22;17142;47.990;7.846;2022-11-20T06:50:17;6.20;99.90
30336;DHT22;17142;47.990;7.846;2022-11-20T06:52:47;6.10;99.90
30336;DHT22;17142;47.990;7.846;2022-11-20T06:55:13;6.10;99.90
30336;DHT22;17142;47.990;7.846;2022-11-20T06:57:39;6.20;99.90
30336;DHT22;17142;47.990;7.846;2022-11-20T07:00:05;6.20;99.90
30336;DHT22;17142;47.990;7.846;2022-11-20T07:02:30;6.20;99.90
30336;DHT22;17142;47.990;7.846;2022-11-20T07:04:56;6.20;99.90
30336;DHT22;17142;47.990;7.846;2022-11-20T07:07:26;6.30;99.90
30336;DHT22;17142;47.990;7.846;2022-11-20T07:09:52;6.30;99.90
30336;DHT22;17142;47.990;7.846;2022-11-20T07:12:17;6.30;99.90
30336;DHT22;17142;47.990;7.846;2022-11-20T07:14:43;6.40;99.90
30336;DHT22;17142;47.990;7.846;2022-11-20T07:17:08;6.40;99.90
30336;DHT22;17142;47.990;7.846;2022-11-20T07:19:34;6.40;99.90
30336;DHT22;17142;47.990;7.846;2022-11-20T07:22:00;6.40;99.90
30336;DHT22;17142;47.990;7.846;2022-11-20T07:24:27;6.50;99.90
30336;DHT22;17142;47.990;7.846;2022-11-20T07:26:53;6.50;99.90
30336;DHT22;17142;47.990;7.846;2022-11-20T07:29:19;6.50;99.90
30336;DHT22;17142;47.990;7.846;2022-11-20T07:31:44;6.60;99.90
30336;DHT22;17142;47.990;7.846;2022-11-20T07:34:10;6.60;99.90
30336;DHT22;17142;47.990;7.846;2022-11-20T07:36:39;6.60;99.90
30336;DHT22;17142;47.990;7.846;2022-11-20T07:39:04;6.60;99.90
30336;DHT22;17142;47.990;7.846;2022-11-20T07:41:33;6.60;99.90
30336;DHT22;17142;47.990;7.846;2022-11-20T07:43:58;6.60;99.90
30336;DHT22;17142;47.990;7.846;2022-11-20T07:46:26;6.60;99.90
30336;DHT22;17142;47.990;7.846;2022-11-20T07:48:52;6.60;99.90
30336;DHT22;17142;47.990;7.846;2022-11-20T07:51:17;6.70;99.90
30336;DHT22;17142;47.990;7.846;2022-11-20T07:53:46;6.80;99.90
30336;DHT22;17142;47.990;7.846;2022-11-20T07:56:11;6.80;99.90
30336;DHT22;17142;47.990;7.846;2022-11-20T07:58:39;6.80;99.90
30336;DHT22;17142;47.990;7.846;2022-11-20T08:01:07;6.80;99.90
30336;DHT22;17142;47.990;7.846;2022-11-20T08:03:34;6.70;99.90
30336;DHT22;17142;47.990;7.846;2022-11-20T08:06:00;6.70;99.90
30336;DHT22;17142;47.990;7.846;2022-11-20T08:08:27;6.70;99.90
30336;DHT22;17142;47.990;7.846;2022-11-20T08:10:53;6.70;99.90
30336;DHT22;17142;47.990;7.846;2022-11-20T08:13:41;6.60;99.90
30336;DHT22;17142;47.990;7.846;2022-11-20T08:16:25;6.60;99.90
30336;DHT22;17142;47.990;7.846;2022-11-20T08:18:50;6.60;99.90
30336;DHT22;17142;47.990;7.846;2022-11-20T08:21:16;6.60;99.90
30336;DHT22;17142;47.990;7.846;2022-11-20T08:23:42;6.60;99.90
30336;DHT22;17142;47.990;7.846;2022-11-20T08:26:09;6.60;99.90
30336;DHT22;17142;47.990;7.846;2022-11-20T08:28:37;6.60;99.90
30336;DHT22;17142;47.990;7.846;2022-11-20T08:31:05;6.60;99.90
30336;DHT22;17142;47.990;7.846;2022-11-20T08:33:33;6.70;99.90
30336;DHT22;17142;47.990;7.846;2022-11-20T08:36:02;6.70;99.90
30336;DHT22;17142;47.990;7.846;2022-11-20T08:38:30;6.80;99.90
30336;DHT22;17142;47.990;7.846;2022-11-20T08:40:57;6.80;99.90
30336;DHT22;17142;47.990;7.846;2022-11-20T08:43:42;6.80;99.90
30336;DHT22;17142;47.990;7.846;2022-11-20T08:46:07;6.90;99.90
30336;DHT22;17142;47.990;7.846;2022-11-20T08:48:33;7.00;99.90
30336;DHT22;17142;47.990;7.846;2022-11-20T08:50:59;7.00;99.90
30336;DHT22;17142;47.990;7.846;2022-11-20T08:53:25;7.10;99.90
30336;DHT22;17142;47.990;7.846;2022-11-20T08:55:50;7.10;99.90
30336;DHT22;17142;47.990;7.846;2022-11-20T08:58:16;7.20;99.90
30336;DHT22;17142;47.990;7.846;2022-11-20T09:00:42;7.30;99.90
30336;DHT22;17142;47.990;7.846;2022-11-20T09:03:07;7.30;99.90
30336;DHT22;17142;47.990;7.846;2022-11-20T09:05:35;7.30;99.90
30336;DHT22;17142;47.990;7.846;2022-11-20T09:08:00;7.30;99.90
30336;DHT22;17142;47.990;7.846;2022-11-20T09:10:27;7.30;99.90
30336;DHT22;17142;47.990;7.846;2022-11-20T09:12:53;7.30;99.90
30336;DHT22;17142;47.990;7.846;2022-11-20T09:15:20;7.30;99.90
30336;DHT22;17142;47.990;7.846;2022-11-20T09:17:56;7.40;99.90
30336;DHT22;17142;47.990;7.846;2022-11-20T09:20:23;7.30;99.90
30336;DHT22;17142;47.990;7.846;2022-11-20T09:22:49;7.30;99.90
30336;DHT22;17142;47.990;7.846;2022-11-20T09:25:15;7.30;99.90
30336;DHT22;17142;47.990;7.846;2022-11-20T09:27:40;7.30;99.90
30336;DHT22;17142;47.990;7.846;2022-11-20T09:30:14;7.30;99.90
30336;DHT22;17142;47.990;7.846;2022-11-20T09:32:39;7.30;99.90
30336;DHT22;17142;47.990;7.846;2022-11-20T09:35:06;7.30;99.90
30336;DHT22;17142;47.990;7.846;2022-11-20T09:37:32;7.30;99.90
30336;DHT22;17142;47.990;7.846;2022-11-20T09:40:00;7.40;99.90
30336;DHT22;17142;47.990;7.846;2022-11-20T09:45:38;7.50;99.90
30336;DHT22;17142;47.990;7.846;2022-11-20T09:48:42;7.60;99.90
30336;DHT22;17142;47.990;7.846;2022-11-20T09:51:21;7.70;99.90
30336;DHT22;17142;47.990;7.846;2022-11-20T09:54:13;7.70;99.90
30336;DHT22;17142;47.990;7.846;2022-11-20T09:56:45;7.80;99.90
30336;DHT22;17142;47.990;7.846;2022-11-20T09:59:31;7.90;99.90
30336;DHT22;17142;47.990;7.846;2022-11-20T10:02:02;8.00;99.90
30336;DHT22;17142;47.990;7.846;2022-11-20T10:04:30;8.10;99.90
30336;DHT22;17142;47.990;7.846;2022-11-20T10:10:16;8.10;99.90
30336;DHT22;17142;47.990;7.846;2022-11-20T10:18:01;8.20;99.90
30336;DHT22;17142;47.990;7.846;2022-11-20T10:26:25;8.40;99.90
30336;DHT22;17142;47.990;7.846;2022-11-20T10:31:39;8.30;99.90
30336;DHT22;17142;47.990;7.846;2022-11-20T10:37:13;8.30;99.90
30336;DHT22;17142;47.990;7.846;2022-11-20T10:40:05;8.30;99.90
30336;DHT22;17142;47.990;7.846;2022-11-20T10:48:41;8.40;99.90
30336;DHT22;17142;47.990;7.846;2022-11-20T10:53:44;8.60;99.90
30336;DHT22;17142;47.990;7.846;2022-11-20T11:01:48;8.80;99.90
30336;DHT22;17142;47.990;7.846;2022-11-20T11:06:51;8.80;99.90
30336;DHT22;17142;47.990;7.846;2022-11-20T11:09:32;8.80;99.90
30336;DHT22;17142;47.990;7.846;2022-11-20T11:12:00;8.80;99.90
30336;DHT22;17142;47.990;7.846;2022-11-20T11:14:28;8.90;99.90
30336;DHT22;17142;47.990;7.846;2022-11-20T11:16:57;9.00;99.90
30336;DHT22;17142;47.990;7.846;2022-11-20T11:19:25;9.10;99.90
30336;DHT22;17142;47.990;7.846;2022-11-20T11:21:55;9.20;99.90
30336;DHT22;17142;47.990;7.846;2022-11-20T11:24:27;9.30;99.90
30336;DHT22;17142;47.990;7.846;2022-11-20T11:26:59;9.20;99.90
30336;DHT22;17142;47.990;7.846;2022-11-20T11:29:27;9.10;99.90
30336;DHT22;17142;47.990;7.846;2022-11-20T11:34:33;9.00;99.90
30336;DHT22;17142;47.990;7.846;2022-11-20T11:36:59;9.00;99.90
30336;DHT22;17142;47.990;7.846;2022-11-20T11:39:27;8.90;99.90
30336;DHT22;17142;47.990;7.846;2022-11-20T11:41:54;8.90;99.90
30336;DHT22;17142;47.990;7.846;2022-11-20T11:44:22;8.80;99.90
30336;DHT22;17142;47.990;7.846;2022-11-20T11:47:32;8.70;99.90
30336;DHT22;17142;47.990;7.846;2022-11-20T11:50:18;8.70;99.90
30336;DHT22;17142;47.990;7.846;2022-11-20T11:53:07;8.70;99.90
30336;DHT22;17142;47.990;7.846;2022-11-20T12:07:47;8.90;99.90
30336;DHT22;17142;47.990;7.846;2022-11-20T12:10:43;9.00;99.90
30336;DHT22;17142;47.990;7.846;2022-11-20T12:16:02;9.10;99.90
30336;DHT22;17142;47.990;7.846;2022-11-20T12:18:28;9.30;99.90
30336;DHT22;17142;47.990;7.846;2022-11-20T12:21:17;9.50;99.90
30336;DHT22;17142;47.990;7.846;2022-11-20T12:29:37;9.90;99.90
30336;DHT22;17142;47.990;7.846;2022-11-20T12:37:49;9.90;99.90
30336;DHT22;17142;47.990;7.846;2022-11-20T12:40:41;9.90;99.90
30336;DHT22;17142;47.990;7.846;2022-11-20T12:43:25;9.80;99.90
30336;DHT22;17142;47.990;7.846;2022-11-20T12:52:30;9.30;99.90
30336;DHT22;17142;47.990;7.846;2022-11-20T12:58:01;9.10;99.90
30336;DHT22;17142;47.990;7.846;2022-11-20T13:00:34;8.90;99.90
30336;DHT22;17142;47.990;7.846;2022-11-20T13:03:29;8.80;99.90
30336;DHT22;17142;47.990;7.846;2022-11-20T13:08:24;8.60;99.90
30336;DHT22;17142;47.990;7.846;2022-11-20T13:17:09;8.90;99.90
30336;DHT22;17142;47.990;7.846;2022-11-20T13:19:25;9.10;99.90
30336;DHT22;17142;47.990;7.846;2022-11-20T13:21:55;9.20;99.90
30336;DHT22;17142;47.990;7.846;2022-11-20T13:29:31;9.20;99.90
30336;DHT22;17142;47.990;7.846;2022-11-20T13:32:22;9.20;99.90
30336;DHT22;17142;47.990;7.846;2022-11-20T13:34:54;9.20;99.90
30336;DHT22;17142;47.990;7.846;2022-11-20T13:45:30;9.20;99.90
30336;DHT22;17142;47.990;7.846;2022-11-20T13:47:58;9.20;99.90
30336;DHT22;17142;47.990;7.846;2022-11-20T14:00:57;9.00;99.90
30336;DHT22;17142;47.990;7.846;2022-11-20T14:03:25;8.90;99.90
30336;DHT22;17142;47.990;7.846;2022-11-20T14:06:02;8.90;99.90
30336;DHT22;17142;47.990;7.846;2022-11-20T14:08:47;8.90;99.90
30336;DHT22;17142;47.990;7.846;2022-11-20T14:11:20;8.90;99.90
30336;DHT22;17142;47.990;7.846;2022-11-20T14:16:34;8.80;99.90
30336;DHT22;17142;47.990;7.846;2022-11-20T14:21:44;8.80;99.90
30336;DHT22;17142;47.990;7.846;2022-11-20T14:24:18;8.70;99.90
30336;DHT22;17142;47.990;7.846;2022-11-20T14:26:45;8.70;99.90
30336;DHT22;17142;47.990;7.846;2022-11-20T14:29:23;8.70;99.90
30336;DHT22;17142;47.990;7.846;2022-11-20T14:31:53;8.70;99.90
30336;DHT22;17142;47.990;7.846;2022-11-20T14:34:24;8.70;99.90
30336;DHT22;17142;47.990;7.846;2022-11-20T14:36:57;8.60;99.90
30336;DHT22;17142;47.990;7.846;2022-11-20T14:39:32;8.60;99.90
30336;DHT22;17142;47.990;7.846;2022-11-20T14:41:58;8.50;99.90
30336;DHT22;17142;47.990;7.846;2022-11-20T14:44:34;8.50;99.90
30336;DHT22;17142;47.990;7.846;2022-11-20T14:47:01;8.50;99.90
30336;DHT22;17142;47.990;7.846;2022-11-20T14:49:30;8.40;99.90
30336;DHT22;17142;47.990;7.846;2022-11-20T14:52:02;8.40;99.90
30336;DHT22;17142;47.990;7.846;2022-11-20T14:54:30;8.40;99.90
30336;DHT22;17142;47.990;7.846;2022-11-20T14:56:57;8.30;99.90
30336;DHT22;17142;47.990;7.846;2022-11-20T14:59:28;8.30;99.90
30336;DHT22;17142;47.990;7.846;2022-11-20T15:02:03;8.20;99.90
30336;DHT22;17142;47.990;7.846;2022-11-20T15:04:30;8.10;99.90
30336;DHT22;17142;47.990;7.846;2022-11-20T15:06:59;8.10;99.90
30336;DHT22;17142;47.990;7.846;2022-11-20T15:09:25;8.00;99.90
30336;DHT22;17142;47.990;7.846;2022-11-20T15:12:04;7.90;99.90
30336;DHT22;17142;47.990;7.846;2022-11-20T15:14:31;7.90;99.90
30336;DHT22;17142;47.990;7.846;2022-11-20T15:16:59;7.90;99.90
30336;DHT22;17142;47.990;7.846;2022-11-20T15:19:25;7.90;99.90
30336;DHT22;17142;47.990;7.846;2022-11-20T15:21:52;7.90;99.90
30336;DHT22;17142;47.990;7.846;2022-11-20T15:24:18;7.80;99.90
30336;DHT22;17142;47.990;7.846;2022-11-20T15:26:44;7.80;99.90
30336;DHT22;17142;47.990;7.846;2022-11-20T15:29:14;7.80;99.90
30336;DHT22;17142;47.990;7.846;2022-11-20T15:31:40;7.70;99.90
30336;DHT22;17142;47.990;7.846;2022-11-20T15:34:10;7.60;99.90
30336;DHT22;17142;47.990;7.846;2022-11-20T15:36:40;7.60;99.90
30336;DHT22;17142;47.990;7.846;2022-11-20T15:39:06;7.60;99.90
30336;DHT22;17142;47.990;7.846;2022-11-20T15:41:37;7.60;99.90
30336;DHT22;17142;47.990;7.846;2022-11-20T15:44:04;7.60;99.90
30336;DHT22;17142;47.990;7.846;2022-11-20T15:46:35;7.60;99.90
30336;DHT22;17142;47.990;7.846;2022-11-20T15:49:08;7.50;99.90
30336;DHT22;17142;47.990;7.846;2022-11-20T15:51:38;7.50;99.90
30336;DHT22;17142;47.990;7.846;2022-11-20T15:54:23;7.50;99.90
30336;DHT22;17142;47.990;7.846;2022-11-20T15:56:51;7.40;99.90
30336;DHT22;17142;47.990;7.846;2022-11-20T15:59:24;7.50;99.90
30336;DHT22;17142;47.990;7.846;2022-11-20T16:01:50;7.50;99.90
30336;DHT22;17142;47.990;7.846;2022-11-20T16:04:16;7.50;99.90
30336;DHT22;17142;47.990;7.846;2022-11-20T16:06:42;7.50;99.90
30336;DHT22;17142;47.990;7.846;2022-11-20T16:09:08;7.50;99.90
30336;DHT22;17142;47.990;7.846;2022-11-20T16:11:35;7.60;99.90
30336;DHT22;17142;47.990;7.846;2022-11-20T16:14:05;7.60;99.90
30336;DHT22;17142;47.990;7.846;2022-11-20T16:16:51;7.60;99.90
30336;DHT22;17142;47.990;7.846;2022-11-20T16:19:17;7.60;99.90
30336;DHT22;17142;47.990;7.846;2022-11-20T16:21:43;7.60;99.90
30336;DHT22;17142;47.990;7.846;2022-11-20T16:24:13;7.60;99.90
30336;DHT22;17142;47.990;7.846;2022-11-20T16:26:39;7.70;99.90
30336;DHT22;17142;47.990;7.846;2022-11-20T16:29:07;7.70;99.90
30336;DHT22;17142;47.990;7.846;2022-11-20T16:31:36;7.70;99.90
30336;DHT22;17142;47.990;7.846;2022-11-20T16:34:04;7.70;99.90
30336;DHT22;17142;47.990;7.846;2022-11-20T16:36:31;7.70;99.90
30336;DHT22;17142;47.990;7.846;2022-11-20T16:38:59;7.80;99.90
30336;DHT22;17142;47.990;7.846;2022-11-20T16:41:29;7.80;99.90
30336;DHT22;17142;47.990;7.846;2022-11-20T16:43:57;7.80;99.90
30336;DHT22;17142;47.990;7.846;2022-11-20T16:46:25;7.80;99.90
30336;DHT22;17142;47.990;7.846;2022-11-20T16:48:59;7.80;99.90
30336;DHT22;17142;47.990;7.846;2022-11-20T16:51:26;7.80;99.90
30336;DHT22;17142;47.990;7.846;2022-11-20T16:53:52;7.80;99.90
30336;DHT22;17142;47.990;7.846;2022-11-20T16:56:24;7.70;99.90
30336;DHT22;17142;47.990;7.846;2022-11-20T16:58:52;7.70;99.90
30336;DHT22;17142;47.990;7.846;2022-11-20T17:01:20;7.70;99.90
30336;DHT22;17142;47.990;7.846;2022-11-20T17:03:52;7.70;99.90
30336;DHT22;17142;47.990;7.846;2022-11-20T17:06:20;7.70;99.90
30336;DHT22;17142;47.990;7.846;2022-11-20T17:08:47;7.70;99.90
30336;DHT22;17142;47.990;7.846;2022-11-20T17:11:17;7.60;99.90
30336;DHT22;17142;47.990;7.846;2022-11-20T17:13:44;7.60;99.90
30336;DHT22;17142;47.990;7.846;2022-11-20T17:16:11;7.60;99.90
30336;DHT22;17142;47.990;7.846;2022-11-20T17:18:37;7.60;99.90
30336;DHT22;17142;47.990;7.846;2022-11-20T17:21:03;7.60;99.90
30336;DHT22;17142;47.990;7.846;2022-11-20T17:23:34;7.60;99.90
30336;DHT22;17142;47.990;7.846;2022-11-20T17:26:06;7.60;99.90
30336;DHT22;17142;47.990;7.846;2022-11-20T17:28:33;7.60;99.90
30336;DHT22;17142;47.990;7.846;2022-11-20T17:31:07;7.60;99.90
30336;DHT22;17142;47.990;7.846;2022-11-20T17:33:34;7.60;99.90
30336;DHT22;17142;47.990;7.846;2022-11-20T17:36:04;7.60;99.90
30336;DHT22;17142;47.990;7.846;2022-11-20T17:38:32;7.70;99.90
30336;DHT22;17142;47.990;7.846;2022-11-20T17:41:14;7.70;99.90
30336;DHT22;17142;47.990;7.846;2022-11-20T17:43:41;7.70;99.90
30336;DHT22;17142;47.990;7.846;2022-11-20T17:46:13;7.70;99.90
30336;DHT22;17142;47.990;7.846;2022-11-20T17:48:39;7.70;99.90
30336;DHT22;17142;47.990;7.846;2022-11-20T17:51:10;7.80;99.90
30336;DHT22;17142;47.990;7.846;2022-11-20T17:53:38;7.70;99.90
30336;DHT22;17142;47.990;7.846;2022-11-20T17:56:07;7.70;99.90
30336;DHT22;17142;47.990;7.846;2022-11-20T17:58:51;7.80;99.90
30336;DHT22;17142;47.990;7.846;2022-11-20T18:01:19;7.70;99.90
30336;DHT22;17142;47.990;7.846;2022-11-20T18:03:45;7.70;99.90
30336;DHT22;17142;47.990;7.846;2022-11-20T18:08:42;7.50;99.90
30336;DHT22;17142;47.990;7.846;2022-11-20T18:13:44;6.90;99.90
30336;DHT22;17142;47.990;7.846;2022-11-20T18:16:31;6.70;99.90